sensor_id;sensor_type;location;lat;lon;timestamp;pressure;altitude;pressure_sealevel;temperature;humidity
46045;BME280;31781;54.094;13.428;2023-02-20T00:00:48;101911.72;;;4.12;71.78
46045;BME280;31781;54.094;13.428;2023-02-20T00:02:51;101901.78;;;4.13;72.08
46045;BME280;31781;54.094;13.428;2023-02-20T00:04:53;101904.59;;;4.11;71.43
46045;BME280;31781;54.094;13.428;2023-02-20T00:06:55;101898.38;;;4.11;71.91
46045;BME280;31781;54.094;13.428;2023-02-20T00:08:56;101894.00;;;4.10;71.93
46045;BME280;31781;54.094;13.428;2023-02-20T00:10:58;101876.13;;;4.09;71.86
46045;BME280;31781;54.094;13.428;2023-02-20T00:13:00;101879.78;;;4.08;71.84
46045;BME280;31781;54.094;13.428;2023-02-20T00:15:02;101880.66;;;4.08;71.85
46045;BME280;31781;54.094;13.428;2023-02-20T00:17:05;101886.03;;;4.08;71.69
46045;BME280;31781;54.094;13.428;2023-02-20T00:19:08;101880.78;;;4.07;71.64
46045;BME280;31781;54.094;13.428;2023-02-20T00:21:10;101880.94;;;4.05;72.22
46045;BME280;31781;54.094;13.428;2023-02-20T00:23:11;101861.94;;;4.07;72.21
46045;BME280;31781;54.094;13.428;2023-02-20T00:25:14;101869.19;;;4.06;72.14
46045;BME280;31781;54.094;13.428;2023-02-20T00:27:16;101864.91;;;4.04;72.41
46045;BME280;31781;54.094;13.428;2023-02-20T00:29:19;101865.63;;;4.06;72.58
46045;BME280;31781;54.094;13.428;2023-02-20T00:31:21;101865.63;;;4.06;72.87
46045;BME280;31781;54.094;13.428;2023-02-20T00:33:23;101858.41;;;4.06;72.30
46045;BME280;31781;54.094;13.428;2023-02-20T00:35:27;101857.41;;;4.07;72.80
46045;BME280;31781;54.094;13.428;2023-02-20T00:37:28;101855.56;;;4.08;72.68
46045;BME280;31781;54.094;13.428;2023-02-20T00:39:30;101848.34;;;4.08;72.01
46045;BME280;31781;54.094;13.428;2023-02-20T00:41:32;101847.63;;;4.06;73.24
46045;BME280;31781;54.094;13.428;2023-02-20T00:43:34;101850.19;;;4.08;73.14
46045;BME280;31781;54.094;13.428;2023-02-20T00:45:36;101850.19;;;4.08;72.90
46045;BME280;31781;54.094;13.428;2023-02-20T00:47:38;101837.56;;;4.08;73.09
46045;BME280;31781;54.094;13.428;2023-02-20T00:49:39;101840.25;;;4.08;73.44
46045;BME280;31781;54.094;13.428;2023-02-20T00:51:42;101826.66;;;4.10;73.30
46045;BME280;31781;54.094;13.428;2023-02-20T00:53:44;101819.41;;;4.10;73.40
46045;BME280;31781;54.094;13.428;2023-02-20T00:55:45;101808.63;;;4.10;73.04
46045;BME280;31781;54.094;13.428;2023-02-20T00:57:47;101814.88;;;4.11;73.66
46045;BME280;31781;54.094;13.428;2023-02-20T00:59:49;101808.38;;;4.13;73.70
46045;BME280;31781;54.094;13.428;2023-02-20T01:01:50;101805.69;;;4.13;73.82
46045;BME280;31781;54.094;13.428;2023-02-20T01:03:52;101793.91;;;4.14;73.50
46045;BME280;31781;54.094;13.428;2023-02-20T01:05:54;101784.84;;;4.15;73.09
46045;BME280;31781;54.094;13.428;2023-02-20T01:07:57;101774.91;;;4.16;73.30
46045;BME280;31781;54.094;13.428;2023-02-20T01:09:58;101770.38;;;4.16;73.54
46045;BME280;31781;54.094;13.428;2023-02-20T01:12:01;101776.63;;;4.17;74.18
46045;BME280;31781;54.094;13.428;2023-02-20T01:14:03;101772.22;;;4.16;74.05
46045;BME280;31781;54.094;13.428;2023-02-20T01:16:05;101768.53;;;4.17;73.78
46045;BME280;31781;54.094;13.428;2023-02-20T01:18:07;101767.53;;;4.18;73.97
46045;BME280;31781;54.094;13.428;2023-02-20T01:20:10;101772.09;;;4.17;73.71
46045;BME280;31781;54.094;13.428;2023-02-20T01:22:12;101772.78;;;4.19;74.00
46045;BME280;31781;54.094;13.428;2023-02-20T01:24:16;101780.72;;;4.21;73.55
46045;BME280;31781;54.094;13.428;2023-02-20T01:26:18;101764.56;;;4.21;74.04
46045;BME280;31781;54.094;13.428;2023-02-20T01:28:20;101766.25;;;4.22;74.25
46045;BME280;31781;54.094;13.428;2023-02-20T01:30:21;101754.38;;;4.24;73.92
46045;BME280;31781;54.094;13.428;2023-02-20T01:32:23;101741.75;;;4.25;73.94
46045;BME280;31781;54.094;13.428;2023-02-20T01:34:30;101734.34;;;4.27;73.83
46045;BME280;31781;54.094;13.428;2023-02-20T01:36:32;101740.59;;;4.27;74.00
46045;BME280;31781;54.094;13.428;2023-02-20T01:38:34;101733.22;;;4.29;73.77
46045;BME280;31781;54.094;13.428;2023-02-20T01:40:37;101733.94;;;4.31;73.89
46045;BME280;31781;54.094;13.428;2023-02-20T01:42:38;101728.38;;;4.33;73.51
46045;BME280;31781;54.094;13.428;2023-02-20T01:44:40;101725.56;;;4.34;74.38
46045;BME280;31781;54.094;13.428;2023-02-20T01:46:52;101722.72;;;4.36;73.37
46045;BME280;31781;54.094;13.428;2023-02-20T01:48:58;101703.69;;;4.37;73.41
46045;BME280;31781;54.094;13.428;2023-02-20T01:51:01;101705.41;;;4.38;74.36
46045;BME280;31781;54.094;13.428;2023-02-20T01:53:06;101701.72;;;4.39;73.63
46045;BME280;31781;54.094;13.428;2023-02-20T01:55:10;101700.59;;;4.42;74.38
46045;BME280;31781;54.094;13.428;2023-02-20T01:57:17;101694.03;;;4.45;74.17
46045;BME280;31781;54.094;13.428;2023-02-20T01:59:21;101678.84;;;4.43;74.98
46045;BME280;31781;54.094;13.428;2023-02-20T02:01:23;101681.28;;;4.47;74.60
46045;BME280;31781;54.094;13.428;2023-02-20T02:03:29;101681.97;;;4.49;74.76
46045;BME280;31781;54.094;13.428;2023-02-20T02:05:32;101671.91;;;4.51;75.01
46045;BME280;31781;54.094;13.428;2023-02-20T02:07:35;101664.66;;;4.51;75.02
46045;BME280;31781;54.094;13.428;2023-02-20T02:09:42;101646.34;;;4.55;74.78
46045;BME280;31781;54.094;13.428;2023-02-20T02:11:48;101635.44;;;4.56;74.09
46045;BME280;31781;54.094;13.428;2023-02-20T02:13:52;101637.25;;;4.56;74.98
46045;BME280;31781;54.094;13.428;2023-02-20T02:16:02;101625.31;;;4.58;74.76
46045;BME280;31781;54.094;13.428;2023-02-20T02:18:15;101632.28;;;4.61;74.94
46045;BME280;31781;54.094;13.428;2023-02-20T02:20:43;101628.44;;;4.63;74.24
46045;BME280;31781;54.094;13.428;2023-02-20T02:25:38;101629.44;;;4.62;74.80
46045;BME280;31781;54.094;13.428;2023-02-20T02:27:59;101616.66;;;4.64;75.13
46045;BME280;31781;54.094;13.428;2023-02-20T02:30:43;101613.66;;;4.67;74.33
46045;BME280;31781;54.094;13.428;2023-02-20T02:33:19;101604.72;;;4.67;73.81
46045;BME280;31781;54.094;13.428;2023-02-20T02:35:38;101598.66;;;4.65;75.44
46045;BME280;31781;54.094;13.428;2023-02-20T02:37:52;101587.03;;;4.64;75.24
46045;BME280;31781;54.094;13.428;2023-02-20T02:40:01;101585.19;;;4.65;75.41
46045;BME280;31781;54.094;13.428;2023-02-20T02:42:09;101576.25;;;4.64;75.19
46045;BME280;31781;54.094;13.428;2023-02-20T02:44:18;101565.59;;;4.63;75.54
46045;BME280;31781;54.094;13.428;2023-02-20T02:46:28;101549.41;;;4.63;76.36
46045;BME280;31781;54.094;13.428;2023-02-20T02:48:35;101539.50;;;4.63;76.48
46045;BME280;31781;54.094;13.428;2023-02-20T02:50:40;101544.75;;;4.65;76.04
46045;BME280;31781;54.094;13.428;2023-02-20T02:52:44;101539.50;;;4.63;76.84
46045;BME280;31781;54.094;13.428;2023-02-20T02:54:48;101542.91;;;4.65;75.87
46045;BME280;31781;54.094;13.428;2023-02-20T02:56:50;101526.03;;;4.63;76.51
46045;BME280;31781;54.094;13.428;2023-02-20T02:58:53;101541.03;;;4.66;76.13
46045;BME280;31781;54.094;13.428;2023-02-20T03:00:57;101535.63;;;4.66;76.34
46045;BME280;31781;54.094;13.428;2023-02-20T03:03:06;101521.34;;;4.65;76.17
46045;BME280;31781;54.094;13.428;2023-02-20T03:05:11;101524.72;;;4.67;76.90
46045;BME280;31781;54.094;13.428;2023-02-20T03:07:16;101511.25;;;4.67;76.33
46045;BME280;31781;54.094;13.428;2023-02-20T03:09:21;101504.84;;;4.68;76.33
46045;BME280;31781;54.094;13.428;2023-02-20T03:11:29;101504.84;;;4.68;76.72
46045;BME280;31781;54.094;13.428;2023-02-20T03:13:42;101510.94;;;4.70;75.83
46045;BME280;31781;54.094;13.428;2023-02-20T03:15:48;101505.53;;;4.70;76.58
46045;BME280;31781;54.094;13.428;2023-02-20T03:17:59;101495.75;;;4.69;76.99
46045;BME280;31781;54.094;13.428;2023-02-20T03:20:06;101492.06;;;4.70;77.20
46045;BME280;31781;54.094;13.428;2023-02-20T03:22:13;101492.06;;;4.70;77.59
46045;BME280;31781;54.094;13.428;2023-02-20T03:24:18;101493.91;;;4.70;77.17
46045;BME280;31781;54.094;13.428;2023-02-20T03:26:29;101484.81;;;4.71;77.47
46045;BME280;31781;54.094;13.428;2023-02-20T03:28:36;101489.22;;;4.72;77.89
46045;BME280;31781;54.094;13.428;2023-02-20T03:30:42;101482.97;;;4.71;77.92
46045;BME280;31781;54.094;13.428;2023-02-20T03:32:49;101495.28;;;4.74;77.62
46045;BME280;31781;54.094;13.428;2023-02-20T03:34:54;101484.69;;;4.72;77.61
46045;BME280;31781;54.094;13.428;2023-02-20T03:37:00;101478.44;;;4.72;77.52
46045;BME280;31781;54.094;13.428;2023-02-20T03:39:07;101468.34;;;4.74;77.46
46045;BME280;31781;54.094;13.428;2023-02-20T03:41:10;101482.66;;;4.74;78.38
46045;BME280;31781;54.094;13.428;2023-02-20T03:43:17;101476.28;;;4.75;77.52
46045;BME280;31781;54.094;13.428;2023-02-20T03:45:22;101484.19;;;4.77;78.00
46045;BME280;31781;54.094;13.428;2023-02-20T03:47:27;101481.50;;;4.77;78.41
46045;BME280;31781;54.094;13.428;2023-02-20T03:49:32;101489.44;;;4.78;78.20
46045;BME280;31781;54.094;13.428;2023-02-20T03:51:35;101476.81;;;4.79;78.22
46045;BME280;31781;54.094;13.428;2023-02-20T03:53:37;101477.50;;;4.81;78.06
46045;BME280;31781;54.094;13.428;2023-02-20T03:55:40;101475.66;;;4.81;78.15
46045;BME280;31781;54.094;13.428;2023-02-20T03:57:44;101489.84;;;4.83;77.95
46045;BME280;31781;54.094;13.428;2023-02-20T03:59:52;101477.22;;;4.84;77.95
46045;BME280;31781;54.094;13.428;2023-02-20T04:01:58;101475.53;;;4.83;78.83
46045;BME280;31781;54.094;13.428;2023-02-20T04:04:02;101469.13;;;4.84;79.11
46045;BME280;31781;54.094;13.428;2023-02-20T04:06:05;101466.25;;;4.85;78.83
46045;BME280;31781;54.094;13.428;2023-02-20T04:08:11;101448.09;;;4.87;78.02
46045;BME280;31781;54.094;13.428;2023-02-20T04:10:18;101446.94;;;4.90;78.43
46045;BME280;31781;54.094;13.428;2023-02-20T04:12:24;101440.69;;;4.89;78.71
46045;BME280;31781;54.094;13.428;2023-02-20T04:14:28;101440.53;;;4.91;79.10
46045;BME280;31781;54.094;13.428;2023-02-20T04:16:36;101435.81;;;4.93;79.03
46045;BME280;31781;54.094;13.428;2023-02-20T04:18:41;101430.44;;;4.93;78.93
46045;BME280;31781;54.094;13.428;2023-02-20T04:20:43;101407.16;;;4.92;78.83
46045;BME280;31781;54.094;13.428;2023-02-20T04:22:47;101407.69;;;4.96;79.20
46045;BME280;31781;54.094;13.428;2023-02-20T04:24:54;101412.09;;;4.97;79.27
46045;BME280;31781;54.094;13.428;2023-02-20T04:26:57;101398.47;;;4.98;79.58
46045;BME280;31781;54.094;13.428;2023-02-20T04:28:59;101395.78;;;4.98;79.79
46045;BME280;31781;54.094;13.428;2023-02-20T04:31:02;101394.75;;;4.99;79.34
46045;BME280;31781;54.094;13.428;2023-02-20T04:33:05;101384.66;;;5.01;79.29
46045;BME280;31781;54.094;13.428;2023-02-20T04:35:14;101380.78;;;5.04;79.64
46045;BME280;31781;54.094;13.428;2023-02-20T04:37:18;101372.69;;;5.04;80.00
46045;BME280;31781;54.094;13.428;2023-02-20T04:39:20;101378.94;;;5.04;80.57
46045;BME280;31781;54.094;13.428;2023-02-20T04:41:22;101351.84;;;5.06;80.36
46045;BME280;31781;54.094;13.428;2023-02-20T04:43:24;101359.06;;;5.05;80.47
46045;BME280;31781;54.094;13.428;2023-02-20T04:45:26;101351.84;;;5.06;80.55
46045;BME280;31781;54.094;13.428;2023-02-20T04:47:27;101332.63;;;5.09;79.94
46045;BME280;31781;54.094;13.428;2023-02-20T04:49:32;101312.56;;;5.11;79.70
46045;BME280;31781;54.094;13.428;2023-02-20T04:51:33;101319.81;;;5.11;80.20
46045;BME280;31781;54.094;13.428;2023-02-20T04:53:35;101317.81;;;5.13;80.29
46045;BME280;31781;54.094;13.428;2023-02-20T04:55:37;101294.22;;;5.15;79.63
46045;BME280;31781;54.094;13.428;2023-02-20T04:57:39;101296.78;;;5.16;80.49
46045;BME280;31781;54.094;13.428;2023-02-20T04:59:40;101289.53;;;5.17;80.39
46045;BME280;31781;54.094;13.428;2023-02-20T05:01:42;101275.00;;;5.18;80.25
46045;BME280;31781;54.094;13.428;2023-02-20T05:03:44;101270.31;;;5.20;80.68
46045;BME280;31781;54.094;13.428;2023-02-20T05:05:47;101260.19;;;5.22;80.60
46045;BME280;31781;54.094;13.428;2023-02-20T05:07:53;101251.09;;;5.23;80.46
46045;BME280;31781;54.094;13.428;2023-02-20T05:09:55;101241.16;;;5.23;80.30
46045;BME280;31781;54.094;13.428;2023-02-20T05:11:57;101228.34;;;5.25;80.19
46045;BME280;31781;54.094;13.428;2023-02-20T05:13:58;101222.94;;;5.25;81.14
46045;BME280;31781;54.094;13.428;2023-02-20T05:16:00;101229.03;;;5.27;80.52
46045;BME280;31781;54.094;13.428;2023-02-20T05:18:02;101225.63;;;5.25;80.95
46045;BME280;31781;54.094;13.428;2023-02-20T05:20:05;101218.25;;;5.27;80.64
46045;BME280;31781;54.094;13.428;2023-02-20T05:22:10;101221.47;;;5.31;80.77
46045;BME280;31781;54.094;13.428;2023-02-20T05:24:15;101214.22;;;5.31;80.66
46045;BME280;31781;54.094;13.428;2023-02-20T05:26:19;101206.97;;;5.32;80.72
46045;BME280;31781;54.094;13.428;2023-02-20T05:28:21;101212.19;;;5.33;80.01
46045;BME280;31781;54.094;13.428;2023-02-20T05:30:23;101202.09;;;5.35;79.83
46045;BME280;31781;54.094;13.428;2023-02-20T05:32:26;101210.00;;;5.37;79.85
46045;BME280;31781;54.094;13.428;2023-02-20T05:34:28;101206.31;;;5.38;79.68
46045;BME280;31781;54.094;13.428;2023-02-20T05:36:30;101198.03;;;5.39;80.11
46045;BME280;31781;54.094;13.428;2023-02-20T05:38:33;101188.09;;;5.40;79.96
46045;BME280;31781;54.094;13.428;2023-02-20T05:40:35;101190.78;;;5.40;80.32
46045;BME280;31781;54.094;13.428;2023-02-20T05:42:36;101169.72;;;5.44;80.51
46045;BME280;31781;54.094;13.428;2023-02-20T05:44:38;101158.09;;;5.43;80.52
46045;BME280;31781;54.094;13.428;2023-02-20T05:46:41;101146.28;;;5.44;79.99
46045;BME280;31781;54.094;13.428;2023-02-20T05:48:43;101166.72;;;5.47;80.19
46045;BME280;31781;54.094;13.428;2023-02-20T05:50:48;101172.91;;;5.47;80.13
46045;BME280;31781;54.094;13.428;2023-02-20T05:52:51;101177.31;;;5.48;80.35
46045;BME280;31781;54.094;13.428;2023-02-20T05:54:54;101170.91;;;5.49;80.57
46045;BME280;31781;54.094;13.428;2023-02-20T05:56:56;101152.69;;;5.51;80.44
46045;BME280;31781;54.094;13.428;2023-02-20T05:58:58;101142.75;;;5.52;81.13
46045;BME280;31781;54.094;13.428;2023-02-20T06:00:59;101163.34;;;5.53;81.17
46045;BME280;31781;54.094;13.428;2023-02-20T06:03:04;101171.44;;;5.53;80.98
46045;BME280;31781;54.094;13.428;2023-02-20T06:05:06;101168.38;;;5.56;81.07
46045;BME280;31781;54.094;13.428;2023-02-20T06:07:08;101175.31;;;5.58;80.84
46045;BME280;31781;54.094;13.428;2023-02-20T06:09:11;101161.66;;;5.60;80.96
46045;BME280;31781;54.094;13.428;2023-02-20T06:11:15;101170.59;;;5.60;81.31
46045;BME280;31781;54.094;13.428;2023-02-20T06:13:17;101154.91;;;5.64;80.51
46045;BME280;31781;54.094;13.428;2023-02-20T06:15:18;101148.50;;;5.65;81.18
46045;BME280;31781;54.094;13.428;2023-02-20T06:17:20;101144.63;;;5.67;80.98
46045;BME280;31781;54.094;13.428;2023-02-20T06:19:23;101147.16;;;5.69;81.35
46045;BME280;31781;54.094;13.428;2023-02-20T06:21:26;101130.78;;;5.70;81.51
46045;BME280;31781;54.094;13.428;2023-02-20T06:23:28;101141.25;;;5.73;81.81
46045;BME280;31781;54.094;13.428;2023-02-20T06:25:30;101117.63;;;5.75;80.89
46045;BME280;31781;54.094;13.428;2023-02-20T06:27:33;101109.34;;;5.77;81.83
46045;BME280;31781;54.094;13.428;2023-02-20T06:29:35;101099.03;;;5.80;81.21
46045;BME280;31781;54.094;13.428;2023-02-20T06:31:37;101097.19;;;5.81;82.61
46045;BME280;31781;54.094;13.428;2023-02-20T06:33:38;101108.50;;;5.84;81.88
46045;BME280;31781;54.094;13.428;2023-02-20T06:35:40;101086.44;;;5.89;81.81
46045;BME280;31781;54.094;13.428;2023-02-20T06:37:43;101078.81;;;5.93;81.38
46045;BME280;31781;54.094;13.428;2023-02-20T06:39:44;101065.81;;;5.96;81.60
46045;BME280;31781;54.094;13.428;2023-02-20T06:41:46;101080.00;;;5.98;81.95
46045;BME280;31781;54.094;13.428;2023-02-20T06:43:49;101096.53;;;6.03;81.67
46045;BME280;31781;54.094;13.428;2023-02-20T06:45:51;101105.31;;;6.05;81.99
46045;BME280;31781;54.094;13.428;2023-02-20T06:47:53;101092.47;;;6.07;81.82
46045;BME280;31781;54.094;13.428;2023-02-20T06:49:54;101075.91;;;6.10;81.30
46045;BME280;31781;54.094;13.428;2023-02-20T06:51:56;101049.25;;;6.15;81.17
46045;BME280;31781;54.094;13.428;2023-02-20T06:53:59;101051.59;;;6.18;80.59
46045;BME280;31781;54.094;13.428;2023-02-20T06:56:01;101040.28;;;6.23;80.84
46045;BME280;31781;54.094;13.428;2023-02-20T06:58:06;101049.03;;;6.25;80.98
46045;BME280;31781;54.094;13.428;2023-02-20T07:00:13;101028.94;;;6.27;80.70
46045;BME280;31781;54.094;13.428;2023-02-20T07:02:15;101030.28;;;6.31;79.88
46045;BME280;31781;54.094;13.428;2023-02-20T07:04:18;101043.59;;;6.33;80.59
46045;BME280;31781;54.094;13.428;2023-02-20T07:06:21;101036.00;;;6.36;80.06
46045;BME280;31781;54.094;13.428;2023-02-20T07:08:23;101020.63;;;6.37;80.43
46045;BME280;31781;54.094;13.428;2023-02-20T07:10:25;100999.00;;;6.37;80.15
46045;BME280;31781;54.094;13.428;2023-02-20T07:12:28;100991.38;;;6.41;79.45
46045;BME280;31781;54.094;13.428;2023-02-20T07:14:30;100993.56;;;6.45;79.45
46045;BME280;31781;54.094;13.428;2023-02-20T07:16:34;100977.34;;;6.45;79.37
46045;BME280;31781;54.094;13.428;2023-02-20T07:18:35;100979.69;;;6.48;79.18
46045;BME280;31781;54.094;13.428;2023-02-20T07:20:37;100975.13;;;6.49;79.53
46045;BME280;31781;54.094;13.428;2023-02-20T07:22:48;100984.09;;;6.49;78.91
46045;BME280;31781;54.094;13.428;2023-02-20T07:24:50;100976.63;;;6.51;78.83
46045;BME280;31781;54.094;13.428;2023-02-20T07:26:52;100961.94;;;6.54;78.41
46045;BME280;31781;54.094;13.428;2023-02-20T07:28:53;100977.13;;;6.55;79.25
46045;BME280;31781;54.094;13.428;2023-02-20T07:30:55;100957.84;;;6.58;78.80
46045;BME280;31781;54.094;13.428;2023-02-20T07:32:58;100951.41;;;6.59;78.72
46045;BME280;31781;54.094;13.428;2023-02-20T07:35:00;100948.91;;;6.57;78.71
46045;BME280;31781;54.094;13.428;2023-02-20T07:37:07;100952.94;;;6.61;78.80
46045;BME280;31781;54.094;13.428;2023-02-20T07:39:10;100943.97;;;6.61;78.76
46045;BME280;31781;54.094;13.428;2023-02-20T07:41:14;100966.25;;;6.63;78.88
46045;BME280;31781;54.094;13.428;2023-02-20T07:43:15;100957.13;;;6.64;78.29
46045;BME280;31781;54.094;13.428;2023-02-20T07:45:17;100958.63;;;6.66;78.57
46045;BME280;31781;54.094;13.428;2023-02-20T07:47:19;100965.53;;;6.69;78.08
46045;BME280;31781;54.094;13.428;2023-02-20T07:49:22;100958.09;;;6.71;78.08
46045;BME280;31781;54.094;13.428;2023-02-20T07:51:24;100949.16;;;6.70;77.94
46045;BME280;31781;54.094;13.428;2023-02-20T07:53:26;100938.34;;;6.70;77.68
46045;BME280;31781;54.094;13.428;2023-02-20T07:55:27;100937.13;;;6.73;78.11
46045;BME280;31781;54.094;13.428;2023-02-20T07:57:30;100937.13;;;6.73;77.84
46045;BME280;31781;54.094;13.428;2023-02-20T07:59:33;100928.47;;;6.77;78.30
46045;BME280;31781;54.094;13.428;2023-02-20T08:01:35;100936.44;;;6.79;77.98
46045;BME280;31781;54.094;13.428;2023-02-20T08:03:37;100932.69;;;6.80;77.69
46045;BME280;31781;54.094;13.428;2023-02-20T08:05:40;100917.13;;;6.82;77.93
46045;BME280;31781;54.094;13.428;2023-02-20T08:07:50;100948.00;;;6.88;78.14
46045;BME280;31781;54.094;13.428;2023-02-20T08:09:51;100930.75;;;6.89;77.39
46045;BME280;31781;54.094;13.428;2023-02-20T08:11:53;100937.66;;;6.91;77.71
46045;BME280;31781;54.094;13.428;2023-02-20T08:13:55;100925.00;;;6.92;78.05
46045;BME280;31781;54.094;13.428;2023-02-20T08:15:56;100905.88;;;6.93;77.47
46045;BME280;31781;54.094;13.428;2023-02-20T08:17:58;100889.28;;;6.96;78.08
46045;BME280;31781;54.094;13.428;2023-02-20T08:20:00;100892.66;;;6.98;78.00
46045;BME280;31781;54.094;13.428;2023-02-20T08:22:03;100903.28;;;7.00;77.59
46045;BME280;31781;54.094;13.428;2023-02-20T08:24:06;100883.13;;;7.02;77.94
46045;BME280;31781;54.094;13.428;2023-02-20T08:26:08;100874.84;;;7.04;77.89
46045;BME280;31781;54.094;13.428;2023-02-20T08:28:10;100875.53;;;7.06;77.77
46045;BME280;31781;54.094;13.428;2023-02-20T08:30:16;100890.72;;;7.07;77.85
46045;BME280;31781;54.094;13.428;2023-02-20T08:32:18;100874.94;;;7.10;77.66
46045;BME280;31781;54.094;13.428;2023-02-20T08:34:20;100867.50;;;7.12;77.51
46045;BME280;31781;54.094;13.428;2023-02-20T08:36:22;100863.59;;;7.15;77.96
46045;BME280;31781;54.094;13.428;2023-02-20T08:38:28;100863.22;;;7.18;77.40
46045;BME280;31781;54.094;13.428;2023-02-20T08:40:30;100891.13;;;7.18;77.85
46045;BME280;31781;54.094;13.428;2023-02-20T08:42:33;100871.81;;;7.21;77.68
46045;BME280;31781;54.094;13.428;2023-02-20T08:44:35;100877.50;;;7.26;77.82
46045;BME280;31781;54.094;13.428;2023-02-20T08:46:39;100879.84;;;7.29;77.68
46045;BME280;31781;54.094;13.428;2023-02-20T08:48:45;100881.53;;;7.30;77.10
46045;BME280;31781;54.094;13.428;2023-02-20T08:50:47;100882.19;;;7.32;77.36
46045;BME280;31781;54.094;13.428;2023-02-20T08:52:48;100871.34;;;7.32;77.67
46045;BME280;31781;54.094;13.428;2023-02-20T08:54:51;100881.81;;;7.35;77.84
46045;BME280;31781;54.094;13.428;2023-02-20T08:56:53;100870.81;;;7.37;77.64
46045;BME280;31781;54.094;13.428;2023-02-20T08:58:55;100878.53;;;7.40;77.50
46045;BME280;31781;54.094;13.428;2023-02-20T09:00:57;100874.81;;;7.41;76.97
46045;BME280;31781;54.094;13.428;2023-02-20T09:02:59;100856.72;;;7.42;77.05
46045;BME280;31781;54.094;13.428;2023-02-20T09:05:01;100863.81;;;7.43;77.46
46045;BME280;31781;54.094;13.428;2023-02-20T09:07:02;100861.75;;;7.45;77.10
46045;BME280;31781;54.094;13.428;2023-02-20T09:09:04;100851.38;;;7.48;76.94
46045;BME280;31781;54.094;13.428;2023-02-20T09:11:08;100862.03;;;7.50;77.59
46045;BME280;31781;54.094;13.428;2023-02-20T09:13:10;100840.84;;;7.53;77.72
46045;BME280;31781;54.094;13.428;2023-02-20T09:15:13;100842.50;;;7.54;77.38
46045;BME280;31781;54.094;13.428;2023-02-20T09:17:15;100842.16;;;7.57;77.60
46045;BME280;31781;54.094;13.428;2023-02-20T09:19:17;100832.16;;;7.58;77.33
46045;BME280;31781;54.094;13.428;2023-02-20T09:21:18;100815.72;;;7.59;77.55
46045;BME280;31781;54.094;13.428;2023-02-20T09:23:20;100826.19;;;7.62;77.42
46045;BME280;31781;54.094;13.428;2023-02-20T09:25:22;100826.84;;;7.64;77.62
46045;BME280;31781;54.094;13.428;2023-02-20T09:27:25;100841.22;;;7.65;77.74
46045;BME280;31781;54.094;13.428;2023-02-20T09:29:27;100819.19;;;7.68;77.51
46045;BME280;31781;54.094;13.428;2023-02-20T09:31:29;100813.56;;;7.69;77.50
46045;BME280;31781;54.094;13.428;2023-02-20T09:33:30;100813.19;;;7.72;77.06
46045;BME280;31781;54.094;13.428;2023-02-20T09:35:32;100824.00;;;7.72;77.07
46045;BME280;31781;54.094;13.428;2023-02-20T09:37:34;100828.22;;;7.75;77.36
46045;BME280;31781;54.094;13.428;2023-02-20T09:39:35;100826.16;;;7.77;77.25
46045;BME280;31781;54.094;13.428;2023-02-20T09:41:48;100823.44;;;7.77;77.47
46045;BME280;31781;54.094;13.428;2023-02-20T09:44:03;100816.84;;;7.79;77.57
46045;BME280;31781;54.094;13.428;2023-02-20T09:46:12;100825.44;;;7.83;77.63
46045;BME280;31781;54.094;13.428;2023-02-20T09:48:22;100829.78;;;7.84;77.45
46045;BME280;31781;54.094;13.428;2023-02-20T09:50:32;100826.91;;;7.86;77.50
46045;BME280;31781;54.094;13.428;2023-02-20T09:52:37;100826.69;;;7.87;77.68
46045;BME280;31781;54.094;13.428;2023-02-20T09:54:43;100809.63;;;7.87;77.90
46045;BME280;31781;54.094;13.428;2023-02-20T09:56:49;100814.44;;;7.91;77.64
46045;BME280;31781;54.094;13.428;2023-02-20T09:58:59;100826.97;;;7.92;78.17
46045;BME280;31781;54.094;13.428;2023-02-20T10:01:03;100821.38;;;7.94;78.25
46045;BME280;31781;54.094;13.428;2023-02-20T10:03:16;100823.03;;;7.95;77.81
46045;BME280;31781;54.094;13.428;2023-02-20T10:05:22;100815.56;;;7.97;78.13
46045;BME280;31781;54.094;13.428;2023-02-20T10:07:28;100826.03;;;8.00;78.07
46045;BME280;31781;54.094;13.428;2023-02-20T10:09:31;100812.94;;;8.03;78.35
46045;BME280;31781;54.094;13.428;2023-02-20T10:11:44;100817.34;;;8.04;78.14
46045;BME280;31781;54.094;13.428;2023-02-20T10:13:55;100838.63;;;8.07;78.49
46045;BME280;31781;54.094;13.428;2023-02-20T10:16:08;100831.34;;;8.08;78.22
46045;BME280;31781;54.094;13.428;2023-02-20T10:18:20;100828.25;;;8.11;77.95
46045;BME280;31781;54.094;13.428;2023-02-20T10:20:32;100840.78;;;8.12;78.62
46045;BME280;31781;54.094;13.428;2023-02-20T10:22:46;100824.13;;;8.15;78.46
46045;BME280;31781;54.094;13.428;2023-02-20T10:25:04;100824.97;;;8.15;78.90
46045;BME280;31781;54.094;13.428;2023-02-20T10:27:17;100831.88;;;8.18;78.68
46045;BME280;31781;54.094;13.428;2023-02-20T10:29:25;100839.81;;;8.19;79.07
46045;BME280;31781;54.094;13.428;2023-02-20T10:31:38;100844.84;;;8.22;79.51
46045;BME280;31781;54.094;13.428;2023-02-20T10:33:44;100851.13;;;8.23;80.37
46045;BME280;31781;54.094;13.428;2023-02-20T10:35:53;100857.38;;;8.23;80.49
46045;BME280;31781;54.094;13.428;2023-02-20T10:38:00;100848.03;;;8.26;80.96
46045;BME280;31781;54.094;13.428;2023-02-20T10:40:10;100841.41;;;8.28;80.90
46045;BME280;31781;54.094;13.428;2023-02-20T10:42:19;100830.56;;;8.28;81.03
46045;BME280;31781;54.094;13.428;2023-02-20T10:44:27;100828.69;;;8.29;81.15
46045;BME280;31781;54.094;13.428;2023-02-20T10:46:38;100825.13;;;8.28;81.54
46045;BME280;31781;54.094;13.428;2023-02-20T10:48:51;100821.22;;;8.31;81.29
46045;BME280;31781;54.094;13.428;2023-02-20T10:51:03;100829.97;;;8.33;81.90
46045;BME280;31781;54.094;13.428;2023-02-20T10:53:15;100822.88;;;8.32;82.88